EZY66X EGKK-EHAM
Flight info
| Callsign | EZY66X |
|---|---|
| Flight time | N/A |
| Altitude | 29000 |
| Route | FRANE M604 GASBA M197 REDFA |
| Aircraft | A320/M-SDE2E3FGHIJ1RWXYZ/LB1 |
Departure
| Time | N/A |
|---|---|
| Airport | London Gatwick Airport (EGKK) |
Arrival
| Time | 2026-04-30 14:42 |
|---|---|
| Airport | Amsterdam Airport Schiphol (EHAM) |
| Time | Latitude | Longitude | Altitude | Speed | Heading |
|---|---|---|---|---|---|
| 2026-04-30 14:18 | 51.90383 | 1.18882 | 23902 ft | 436 kts | 75° |
| 2026-04-30 14:18 | 51.91233 | 1.23602 | 24391 ft | 439 kts | 75° |
| 2026-04-30 14:18 | 51.92956 | 1.33197 | 25338 ft | 447 kts | 74° |
| 2026-04-30 14:19 | 51.94693 | 1.42954 | 26231 ft | 454 kts | 74° |
| 2026-04-30 14:19 | 51.95566 | 1.47886 | 26660 ft | 457 kts | 74° |
| 2026-04-30 14:19 | 51.96444 | 1.52863 | 27078 ft | 460 kts | 74° |
| 2026-04-30 14:20 | 51.97326 | 1.57871 | 27482 ft | 463 kts | 73° |
| 2026-04-30 14:20 | 51.98211 | 1.62914 | 27877 ft | 466 kts | 73° |
| 2026-04-30 14:20 | 51.99958 | 1.73115 | 28623 ft | 472 kts | 75° |
| 2026-04-30 14:21 | 52.00751 | 1.78228 | 28977 ft | 475 kts | 75° |
| 2026-04-30 14:21 | 52.01542 | 1.83442 | 29306 ft | 477 kts | 75° |
| 2026-04-30 14:21 | 52.03142 | 1.93934 | 29485 ft | 479 kts | 75° |
| 2026-04-30 14:22 | 52.03947 | 1.99180 | 29480 ft | 479 kts | 75° |
| 2026-04-30 14:22 | 52.05556 | 2.09677 | 29374 ft | 479 kts | 75° |
| 2026-04-30 14:22 | 52.06359 | 2.14908 | 29127 ft | 477 kts | 74° |
| 2026-04-30 14:23 | 52.08787 | 2.24839 | 28633 ft | 471 kts | 65° |
| 2026-04-30 14:23 | 52.11370 | 2.34589 | 28127 ft | 468 kts | 65° |
| 2026-04-30 14:24 | 52.13923 | 2.44284 | 27627 ft | 464 kts | 66° |
| 2026-04-30 14:24 | 52.15187 | 2.49109 | 27385 ft | 462 kts | 66° |
| 2026-04-30 14:25 | 52.17700 | 2.58729 | 26466 ft | 461 kts | 66° |
| 2026-04-30 14:25 | 52.20184 | 2.68278 | 25295 ft | 453 kts | 67° |
| 2026-04-30 14:26 | 52.22612 | 2.77649 | 24129 ft | 444 kts | 67° |
| 2026-04-30 14:26 | 52.23807 | 2.82278 | 23545 ft | 440 kts | 68° |
| 2026-04-30 14:26 | 52.26150 | 2.91383 | 22381 ft | 431 kts | 68° |
| 2026-04-30 14:27 | 52.27305 | 2.95884 | 21806 ft | 427 kts | 68° |
| 2026-04-30 14:27 | 52.28443 | 3.00327 | 21230 ft | 423 kts | 68° |
| 2026-04-30 14:27 | 52.29572 | 3.04748 | 20644 ft | 419 kts | 69° |
| 2026-04-30 14:28 | 52.31788 | 3.13448 | 19499 ft | 411 kts | 69° |
| 2026-04-30 14:28 | 52.32877 | 3.17737 | 18927 ft | 406 kts | 69° |
| 2026-04-30 14:28 | 52.33948 | 3.21986 | 18360 ft | 402 kts | 70° |
| 2026-04-30 14:28 | 52.34994 | 3.26195 | 17799 ft | 398 kts | 70° |
| 2026-04-30 14:29 | 52.37072 | 3.34487 | 16684 ft | 390 kts | 69° |
| 2026-04-30 14:29 | 52.38783 | 3.41234 | 15775 ft | 383 kts | 69° |
| 2026-04-30 14:30 | 52.42107 | 3.54443 | 14000 ft | 369 kts | 70° |
| 2026-04-30 14:31 | 52.44017 | 3.62090 | 12967 ft | 361 kts | 71° |
| 2026-04-30 14:31 | 52.44145 | 3.69941 | 11921 ft | 344 kts | 112° |
| 2026-04-30 14:31 | 52.43059 | 3.73380 | 11396 ft | 338 kts | 122° |
| 2026-04-30 14:32 | 52.40675 | 3.79949 | 10346 ft | 333 kts | 122° |
| 2026-04-30 14:32 | 52.39492 | 3.83181 | 9822 ft | 330 kts | 122° |
| 2026-04-30 14:32 | 52.38311 | 3.86396 | 9296 ft | 328 kts | 122° |
| 2026-04-30 14:33 | 52.37140 | 3.89570 | 8772 ft | 325 kts | 122° |
| 2026-04-30 14:33 | 52.34808 | 3.95862 | 7722 ft | 321 kts | 122° |
| 2026-04-30 14:33 | 52.33644 | 3.98971 | 7197 ft | 319 kts | 122° |
| 2026-04-30 14:34 | 52.32483 | 4.02050 | 6672 ft | 318 kts | 122° |
| 2026-04-30 14:34 | 52.31322 | 4.05111 | 6147 ft | 316 kts | 122° |
| 2026-04-30 14:34 | 52.30163 | 4.08153 | 5621 ft | 314 kts | 122° |
| 2026-04-30 14:34 | 52.29009 | 4.11172 | 5096 ft | 312 kts | 122° |
| 2026-04-30 14:35 | 52.27116 | 4.16103 | 4518 ft | 301 kts | 122° |
| 2026-04-30 14:35 | 52.25641 | 4.19936 | 3979 ft | 297 kts | 122° |
| 2026-04-30 14:35 | 52.24553 | 4.22757 | 3502 ft | 289 kts | 122° |
| 2026-04-30 14:36 | 52.23495 | 4.25492 | 3027 ft | 281 kts | 122° |
| 2026-04-30 14:36 | 52.22484 | 4.28119 | 2553 ft | 273 kts | 119° |
| 2026-04-30 14:36 | 52.21944 | 4.31032 | 2226 ft | 260 kts | 94° |
| 2026-04-30 14:36 | 52.21868 | 4.33926 | 2145 ft | 259 kts | 92° |
| 2026-04-30 14:37 | 52.21803 | 4.36804 | 2128 ft | 252 kts | 92° |
| 2026-04-30 14:37 | 52.21752 | 4.39060 | 2128 ft | 240 kts | 92° |
| 2026-04-30 14:37 | 52.21693 | 4.41690 | 2131 ft | 226 kts | 92° |
| 2026-04-30 14:37 | 52.21635 | 4.44238 | 2132 ft | 227 kts | 92° |
| 2026-04-30 14:38 | 52.21577 | 4.46792 | 2130 ft | 225 kts | 92° |
| 2026-04-30 14:38 | 52.21521 | 4.49344 | 2131 ft | 226 kts | 92° |
| 2026-04-30 14:38 | 52.21480 | 4.51908 | 2130 ft | 226 kts | 88° |
| 2026-04-30 14:38 | 52.21766 | 4.54412 | 2131 ft | 226 kts | 71° |
| 2026-04-30 14:39 | 52.22418 | 4.56744 | 2129 ft | 227 kts | 62° |
| 2026-04-30 14:39 | 52.23218 | 4.58956 | 2092 ft | 228 kts | 58° |
| 2026-04-30 14:39 | 52.24070 | 4.61144 | 1791 ft | 228 kts | 58° |
| 2026-04-30 14:40 | 52.25742 | 4.65489 | 1182 ft | 222 kts | 58° |
| 2026-04-30 14:40 | 52.26534 | 4.67554 | 889 ft | 207 kts | 58° |
| 2026-04-30 14:40 | 52.27271 | 4.69468 | 659 ft | 188 kts | 58° |
| 2026-04-30 14:40 | 52.27927 | 4.71174 | 395 ft | 167 kts | 58° |
| 2026-04-30 14:41 | 52.28504 | 4.72676 | 203 ft | 147 kts | 58° |
| 2026-04-30 14:41 | 52.29040 | 4.74052 | 2 ft | 142 kts | 58° |
| 2026-04-30 14:41 | 52.29477 | 4.75192 | -5 ft | 84 kts | 58° |
| 2026-04-30 14:41 | 52.29630 | 4.75593 | -3 ft | 56 kts | 58° |
| 2026-04-30 14:42 | 52.29895 | 4.76281 | -6 ft | 49 kts | 56° |
| 2026-04-30 14:42 | 52.30041 | 4.76544 | -3 ft | 29 kts | 31° |
| 2026-04-30 14:42 | 52.30181 | 4.76668 | -3 ft | 11 kts | 27° |
| 2026-04-30 14:42 | 52.30190 | 4.76677 | -3 ft | 2 kts | 27° |
| 2026-04-30 14:43 | 52.30212 | 4.76696 | -3 ft | 0 kts | 28° |
| 2026-04-30 14:44 | 52.30223 | 4.76705 | -3 ft | 7 kts | 28° |
| 2026-04-30 14:44 | 52.30268 | 4.76744 | -3 ft | 0 kts | 28° |
| 2026-04-30 14:44 | 52.30291 | 4.76768 | -3 ft | 9 kts | 37° |
| 2026-04-30 14:44 | 52.30342 | 4.76883 | -3 ft | 15 kts | 64° |
| 2026-04-30 14:45 | 52.30370 | 4.76969 | -3 ft | 2 kts | 59° |
| 2026-04-30 14:45 | 52.30386 | 4.77014 | -3 ft | 7 kts | 59° |
| 2026-04-30 14:45 | 52.30417 | 4.77096 | -3 ft | 9 kts | 59° |
| 2026-04-30 14:45 | 52.30418 | 4.77100 | -3 ft | 0 kts | 59° |
| 2026-04-30 14:46 | 52.30421 | 4.77109 | -3 ft | 5 kts | 59° |
| 2026-04-30 14:46 | 52.30454 | 4.77196 | -3 ft | 12 kts | 59° |
| 2026-04-30 14:47 | 52.30503 | 4.77325 | -3 ft | 15 kts | 58° |
| 2026-04-30 14:47 | 52.30558 | 4.77461 | -3 ft | 0 kts | 61° |
| 2026-04-30 14:48 | 52.30587 | 4.77528 | -3 ft | 15 kts | 38° |
| 2026-04-30 14:49 | 52.30718 | 4.77589 | -3 ft | 22 kts | 6° |
| 2026-04-30 14:49 | 52.30884 | 4.77605 | -3 ft | 26 kts | 4° |
| 2026-04-30 14:49 | 52.31067 | 4.77625 | -3 ft | 27 kts | 3° |
| 2026-04-30 14:49 | 52.31218 | 4.77649 | -3 ft | 17 kts | 5° |
| 2026-04-30 14:50 | 52.31327 | 4.77444 | -3 ft | 15 kts | 314° |
| 2026-04-30 14:50 | 52.31402 | 4.77309 | -3 ft | 18 kts | 310° |
| 2026-04-30 14:51 | 52.31481 | 4.76913 | -3 ft | 21 kts | 266° |
| 2026-04-30 14:51 | 52.31471 | 4.76660 | -3 ft | 23 kts | 266° |
| 2026-04-30 14:51 | 52.31452 | 4.76086 | -3 ft | 27 kts | 268° |
| 2026-04-30 14:52 | 52.31442 | 4.75818 | -3 ft | 23 kts | 265° |
| 2026-04-30 14:52 | 52.31388 | 4.75448 | -3 ft | 11 kts | 178° |
| 2026-04-30 14:52 | 52.31300 | 4.75452 | -3 ft | 14 kts | 177° |
| 2026-04-30 14:53 | 52.31114 | 4.75483 | -3 ft | 11 kts | 194° |
| 2026-04-30 14:53 | 52.31060 | 4.75424 | -3 ft | 7 kts | 168° |
| 2026-04-30 14:54 | 52.31027 | 4.75459 | -3 ft | 0 kts | 148° |